sensor_id;sensor_type;location;lat;lon;timestamp;pressure;altitude;pressure_sealevel;temperature;humidity
4586;BME280;2305;50.118;8.952;2024-02-21T00:01:14;101460.56;;;10.26;100.00
4586;BME280;2305;50.118;8.952;2024-02-21T00:03:43;101448.34;;;10.11;100.00
4586;BME280;2305;50.118;8.952;2024-02-21T00:06:11;101446.00;;;10.06;100.00
4586;BME280;2305;50.118;8.952;2024-02-21T00:08:39;101450.13;;;10.24;100.00
4586;BME280;2305;50.118;8.952;2024-02-21T00:11:09;101448.13;;;10.28;100.00
4586;BME280;2305;50.118;8.952;2024-02-21T00:13:39;101435.34;;;10.22;100.00
4586;BME280;2305;50.118;8.952;2024-02-21T00:16:09;101441.56;;;10.07;100.00
4586;BME280;2305;50.118;8.952;2024-02-21T00:18:38;101441.75;;;10.18;100.00
4586;BME280;2305;50.118;8.952;2024-02-21T00:21:09;101447.84;;;10.04;100.00
4586;BME280;2305;50.118;8.952;2024-02-21T00:23:41;101449.38;;;10.22;100.00
4586;BME280;2305;50.118;8.952;2024-02-21T00:26:10;101445.59;;;9.98;100.00
4586;BME280;2305;50.118;8.952;2024-02-21T00:28:41;101437.41;;;9.89;100.00
4586;BME280;2305;50.118;8.952;2024-02-21T00:31:10;101438.34;;;9.74;100.00
4586;BME280;2305;50.118;8.952;2024-02-21T00:33:38;101451.66;;;9.71;100.00
4586;BME280;2305;50.118;8.952;2024-02-21T00:36:06;101435.59;;;9.75;100.00
4586;BME280;2305;50.118;8.952;2024-02-21T00:38:37;101425.63;;;9.80;100.00
4586;BME280;2305;50.118;8.952;2024-02-21T00:41:06;101430.50;;;9.58;100.00
4586;BME280;2305;50.118;8.952;2024-02-21T00:43:38;101412.94;;;9.45;100.00
4586;BME280;2305;50.118;8.952;2024-02-21T00:46:08;101408.66;;;9.28;100.00
4586;BME280;2305;50.118;8.952;2024-02-21T00:48:36;101400.88;;;9.41;100.00
4586;BME280;2305;50.118;8.952;2024-02-21T00:51:04;101397.78;;;9.34;100.00
4586;BME280;2305;50.118;8.952;2024-02-21T00:53:32;101394.38;;;9.32;100.00
4586;BME280;2305;50.118;8.952;2024-02-21T00:56:00;101404.91;;;9.32;100.00
4586;BME280;2305;50.118;8.952;2024-02-21T00:58:30;101410.81;;;9.36;100.00
4586;BME280;2305;50.118;8.952;2024-02-21T01:00:58;101399.13;;;9.41;100.00
4586;BME280;2305;50.118;8.952;2024-02-21T01:03:29;101386.78;;;9.42;100.00
4586;BME280;2305;50.118;8.952;2024-02-21T01:05:57;101387.44;;;9.45;100.00
4586;BME280;2305;50.118;8.952;2024-02-21T01:08:26;101374.09;;;9.34;100.00
4586;BME280;2305;50.118;8.952;2024-02-21T01:10:55;101366.38;;;9.31;100.00
4586;BME280;2305;50.118;8.952;2024-02-21T01:13:23;101372.59;;;9.30;100.00
4586;BME280;2305;50.118;8.952;2024-02-21T01:15:51;101375.66;;;9.23;100.00
4586;BME280;2305;50.118;8.952;2024-02-21T01:18:22;101375.19;;;9.16;100.00
4586;BME280;2305;50.118;8.952;2024-02-21T01:20:52;101380.09;;;9.22;100.00
4586;BME280;2305;50.118;8.952;2024-02-21T01:23:23;101384.41;;;9.23;100.00
4586;BME280;2305;50.118;8.952;2024-02-21T01:25:51;101387.03;;;9.23;100.00
4586;BME280;2305;50.118;8.952;2024-02-21T01:28:19;101385.28;;;9.24;100.00
4586;BME280;2305;50.118;8.952;2024-02-21T01:30:51;101384.22;;;9.26;100.00
4586;BME280;2305;50.118;8.952;2024-02-21T01:33:19;101381.81;;;9.37;100.00
4586;BME280;2305;50.118;8.952;2024-02-21T01:35:48;101380.78;;;9.40;100.00
4586;BME280;2305;50.118;8.952;2024-02-21T01:38:18;101386.19;;;9.23;100.00
4586;BME280;2305;50.118;8.952;2024-02-21T01:40:46;101394.34;;;9.18;100.00
4586;BME280;2305;50.118;8.952;2024-02-21T01:43:20;101387.97;;;9.22;100.00
4586;BME280;2305;50.118;8.952;2024-02-21T01:45:50;101383.41;;;9.40;100.00
4586;BME280;2305;50.118;8.952;2024-02-21T01:48:19;101380.47;;;9.30;100.00
4586;BME280;2305;50.118;8.952;2024-02-21T01:50:49;101367.41;;;9.29;100.00
4586;BME280;2305;50.118;8.952;2024-02-21T01:53:21;101353.59;;;9.25;100.00
4586;BME280;2305;50.118;8.952;2024-02-21T01:55:50;101348.69;;;9.19;100.00
4586;BME280;2305;50.118;8.952;2024-02-21T01:58:19;101342.13;;;9.26;100.00
4586;BME280;2305;50.118;8.952;2024-02-21T02:00:48;101344.03;;;9.24;100.00
4586;BME280;2305;50.118;8.952;2024-02-21T02:03:16;101347.59;;;9.37;100.00
4586;BME280;2305;50.118;8.952;2024-02-21T02:05:45;101346.84;;;9.21;100.00
4586;BME280;2305;50.118;8.952;2024-02-21T02:08:14;101344.59;;;9.29;100.00
4586;BME280;2305;50.118;8.952;2024-02-21T02:10:44;101346.25;;;9.16;100.00
4586;BME280;2305;50.118;8.952;2024-02-21T02:13:15;101349.53;;;9.06;100.00
4586;BME280;2305;50.118;8.952;2024-02-21T02:15:45;101347.56;;;9.09;100.00
4586;BME280;2305;50.118;8.952;2024-02-21T02:18:16;101351.13;;;9.08;100.00
4586;BME280;2305;50.118;8.952;2024-02-21T02:20:45;101353.00;;;9.06;100.00
4586;BME280;2305;50.118;8.952;2024-02-21T02:23:20;101350.50;;;9.19;100.00
4586;BME280;2305;50.118;8.952;2024-02-21T02:25:49;101348.22;;;9.13;100.00
4586;BME280;2305;50.118;8.952;2024-02-21T02:28:19;101341.91;;;9.01;100.00
4586;BME280;2305;50.118;8.952;2024-02-21T02:30:48;101343.41;;;9.05;100.00
4586;BME280;2305;50.118;8.952;2024-02-21T02:33:16;101336.19;;;9.09;100.00
4586;BME280;2305;50.118;8.952;2024-02-21T02:35:45;101329.44;;;9.05;100.00
4586;BME280;2305;50.118;8.952;2024-02-21T02:38:14;101320.03;;;9.01;100.00
4586;BME280;2305;50.118;8.952;2024-02-21T02:40:46;101316.38;;;9.03;100.00
4586;BME280;2305;50.118;8.952;2024-02-21T02:43:15;101313.00;;;9.01;100.00
4586;BME280;2305;50.118;8.952;2024-02-21T02:45:43;101314.41;;;9.07;100.00
4586;BME280;2305;50.118;8.952;2024-02-21T02:48:11;101298.91;;;9.02;100.00
4586;BME280;2305;50.118;8.952;2024-02-21T02:50:39;101291.22;;;8.99;100.00
4586;BME280;2305;50.118;8.952;2024-02-21T02:53:09;101290.75;;;9.07;100.00
4586;BME280;2305;50.118;8.952;2024-02-21T02:55:37;101286.88;;;8.98;100.00
4586;BME280;2305;50.118;8.952;2024-02-21T02:58:06;101282.84;;;8.93;100.00
4586;BME280;2305;50.118;8.952;2024-02-21T03:00:35;101286.22;;;8.81;100.00
4586;BME280;2305;50.118;8.952;2024-02-21T03:03:04;101283.66;;;8.80;100.00
4586;BME280;2305;50.118;8.952;2024-02-21T03:05:32;101280.84;;;8.82;100.00
4586;BME280;2305;50.118;8.952;2024-02-21T03:08:01;101288.09;;;8.93;100.00
4586;BME280;2305;50.118;8.952;2024-02-21T03:10:30;101285.19;;;8.97;100.00
4586;BME280;2305;50.118;8.952;2024-02-21T03:12:57;101283.75;;;9.21;100.00
4586;BME280;2305;50.118;8.952;2024-02-21T03:15:27;101291.91;;;9.17;100.00
4586;BME280;2305;50.118;8.952;2024-02-21T03:17:55;101282.97;;;9.19;100.00
4586;BME280;2305;50.118;8.952;2024-02-21T03:20:23;101272.56;;;9.18;100.00
4586;BME280;2305;50.118;8.952;2024-02-21T03:22:52;101273.75;;;9.12;100.00
4586;BME280;2305;50.118;8.952;2024-02-21T03:25:22;101272.34;;;9.07;100.00
4586;BME280;2305;50.118;8.952;2024-02-21T03:27:51;101263.50;;;9.08;100.00
4586;BME280;2305;50.118;8.952;2024-02-21T03:30:19;101257.16;;;9.12;100.00
4586;BME280;2305;50.118;8.952;2024-02-21T03:32:49;101253.22;;;9.19;100.00
4586;BME280;2305;50.118;8.952;2024-02-21T03:35:17;101251.81;;;9.13;100.00
4586;BME280;2305;50.118;8.952;2024-02-21T03:37:45;101249.06;;;9.15;100.00
4586;BME280;2305;50.118;8.952;2024-02-21T03:40:13;101246.72;;;9.10;100.00
4586;BME280;2305;50.118;8.952;2024-02-21T03:42:42;101245.97;;;9.08;100.00
4586;BME280;2305;50.118;8.952;2024-02-21T03:45:10;101241.38;;;9.12;100.00
4586;BME280;2305;50.118;8.952;2024-02-21T03:47:41;101230.66;;;9.15;100.00
4586;BME280;2305;50.118;8.952;2024-02-21T03:50:11;101234.88;;;9.17;100.00
4586;BME280;2305;50.118;8.952;2024-02-21T03:52:39;101235.38;;;9.10;100.00
4586;BME280;2305;50.118;8.952;2024-02-21T03:55:08;101240.16;;;9.17;100.00
4586;BME280;2305;50.118;8.952;2024-02-21T03:57:36;101238.09;;;9.08;100.00
4586;BME280;2305;50.118;8.952;2024-02-21T04:00:06;101234.59;;;9.08;100.00
4586;BME280;2305;50.118;8.952;2024-02-21T04:02:37;101235.16;;;8.99;100.00
4586;BME280;2305;50.118;8.952;2024-02-21T04:05:06;101244.09;;;9.10;100.00
4586;BME280;2305;50.118;8.952;2024-02-21T04:07:40;101243.91;;;9.13;100.00
4586;BME280;2305;50.118;8.952;2024-02-21T04:10:08;101248.69;;;9.21;100.00
4586;BME280;2305;50.118;8.952;2024-02-21T04:12:37;101249.56;;;9.21;100.00
4586;BME280;2305;50.118;8.952;2024-02-21T04:15:05;101241.53;;;9.23;100.00
4586;BME280;2305;50.118;8.952;2024-02-21T04:17:34;101240.63;;;9.10;100.00
4586;BME280;2305;50.118;8.952;2024-02-21T04:20:04;101228.22;;;9.26;100.00
4586;BME280;2305;50.118;8.952;2024-02-21T04:22:34;101214.59;;;9.19;100.00
4586;BME280;2305;50.118;8.952;2024-02-21T04:25:05;101224.75;;;9.11;100.00
4586;BME280;2305;50.118;8.952;2024-02-21T04:27:33;101221.38;;;9.23;100.00
4586;BME280;2305;50.118;8.952;2024-02-21T04:30:01;101209.72;;;9.41;100.00
4586;BME280;2305;50.118;8.952;2024-02-21T04:32:29;101210.84;;;9.09;100.00
4586;BME280;2305;50.118;8.952;2024-02-21T04:34:57;101201.66;;;9.02;100.00
4586;BME280;2305;50.118;8.952;2024-02-21T04:37:26;101197.34;;;9.01;100.00
4586;BME280;2305;50.118;8.952;2024-02-21T04:39:53;101194.34;;;9.07;100.00
4586;BME280;2305;50.118;8.952;2024-02-21T04:42:23;101188.72;;;8.99;100.00
4586;BME280;2305;50.118;8.952;2024-02-21T04:44:51;101182.88;;;9.08;100.00
4586;BME280;2305;50.118;8.952;2024-02-21T04:47:19;101178.06;;;9.15;100.00
4586;BME280;2305;50.118;8.952;2024-02-21T04:49:47;101169.25;;;9.16;100.00
4586;BME280;2305;50.118;8.952;2024-02-21T04:52:16;101167.09;;;9.08;100.00
4586;BME280;2305;50.118;8.952;2024-02-21T04:54:43;101161.19;;;9.05;100.00
4586;BME280;2305;50.118;8.952;2024-02-21T04:57:14;101170.69;;;9.07;100.00
4586;BME280;2305;50.118;8.952;2024-02-21T04:59:46;101174.13;;;9.22;100.00
4586;BME280;2305;50.118;8.952;2024-02-21T05:02:14;101180.25;;;9.22;100.00
4586;BME280;2305;50.118;8.952;2024-02-21T05:04:42;101184.47;;;9.25;100.00
4586;BME280;2305;50.118;8.952;2024-02-21T05:07:11;101175.28;;;9.18;100.00
4586;BME280;2305;50.118;8.952;2024-02-21T05:09:39;101175.56;;;9.13;100.00
4586;BME280;2305;50.118;8.952;2024-02-21T05:12:07;101166.06;;;9.11;100.00
4586;BME280;2305;50.118;8.952;2024-02-21T05:14:36;101164.94;;;9.15;100.00
4586;BME280;2305;50.118;8.952;2024-02-21T05:17:05;101166.16;;;9.09;100.00
4586;BME280;2305;50.118;8.952;2024-02-21T05:19:33;101168.22;;;9.04;100.00
4586;BME280;2305;50.118;8.952;2024-02-21T05:22:02;101171.72;;;9.05;100.00
4586;BME280;2305;50.118;8.952;2024-02-21T05:24:30;101173.41;;;9.06;100.00
4586;BME280;2305;50.118;8.952;2024-02-21T05:26:57;101176.31;;;9.15;100.00
4586;BME280;2305;50.118;8.952;2024-02-21T05:29:26;101177.53;;;9.10;100.00
4586;BME280;2305;50.118;8.952;2024-02-21T05:31:57;101186.34;;;9.09;100.00
4586;BME280;2305;50.118;8.952;2024-02-21T05:34:28;101192.44;;;9.09;100.00
4586;BME280;2305;50.118;8.952;2024-02-21T05:36:56;101186.53;;;9.20;100.00
4586;BME280;2305;50.118;8.952;2024-02-21T05:39:28;101182.59;;;9.13;100.00
4586;BME280;2305;50.118;8.952;2024-02-21T05:41:56;101199.97;;;9.15;100.00
4586;BME280;2305;50.118;8.952;2024-02-21T05:44:24;101200.34;;;9.23;100.00
4586;BME280;2305;50.118;8.952;2024-02-21T05:46:53;101192.44;;;9.23;100.00
4586;BME280;2305;50.118;8.952;2024-02-21T05:49:21;101189.38;;;9.17;100.00
4586;BME280;2305;50.118;8.952;2024-02-21T05:51:53;101192.81;;;9.17;100.00
4586;BME280;2305;50.118;8.952;2024-02-21T05:54:21;101188.72;;;9.13;100.00
4586;BME280;2305;50.118;8.952;2024-02-21T05:56:52;101192.16;;;9.14;100.00
4586;BME280;2305;50.118;8.952;2024-02-21T05:59:23;101186.16;;;9.12;100.00
4586;BME280;2305;50.118;8.952;2024-02-21T06:01:55;101182.69;;;9.11;100.00
4586;BME280;2305;50.118;8.952;2024-02-21T06:04:24;101181.00;;;9.10;100.00
4586;BME280;2305;50.118;8.952;2024-02-21T06:06:54;101168.88;;;9.08;100.00
4586;BME280;2305;50.118;8.952;2024-02-21T06:09:23;101162.50;;;8.98;100.00
4586;BME280;2305;50.118;8.952;2024-02-21T06:11:51;101152.28;;;8.93;100.00
4586;BME280;2305;50.118;8.952;2024-02-21T06:14:19;101162.31;;;8.87;100.00
4586;BME280;2305;50.118;8.952;2024-02-21T06:16:47;101157.63;;;9.06;100.00
4586;BME280;2305;50.118;8.952;2024-02-21T06:19:15;101154.06;;;8.93;100.00
4586;BME280;2305;50.118;8.952;2024-02-21T06:21:46;101150.47;;;8.94;100.00
4586;BME280;2305;50.118;8.952;2024-02-21T06:24:15;101138.94;;;9.10;100.00
4586;BME280;2305;50.118;8.952;2024-02-21T06:26:45;101127.50;;;8.83;100.00
4586;BME280;2305;50.118;8.952;2024-02-21T06:29:13;101125.94;;;8.81;100.00
4586;BME280;2305;50.118;8.952;2024-02-21T06:31:41;101119.53;;;8.85;100.00
4586;BME280;2305;50.118;8.952;2024-02-21T06:34:09;101129.75;;;8.76;100.00
4586;BME280;2305;50.118;8.952;2024-02-21T06:36:37;101128.81;;;8.77;100.00
4586;BME280;2305;50.118;8.952;2024-02-21T06:39:08;101127.31;;;8.73;100.00
4586;BME280;2305;50.118;8.952;2024-02-21T06:41:39;101126.66;;;8.69;100.00
4586;BME280;2305;50.118;8.952;2024-02-21T06:44:09;101129.19;;;8.57;100.00
4586;BME280;2305;50.118;8.952;2024-02-21T06:46:37;101129.38;;;8.54;100.00
4586;BME280;2305;50.118;8.952;2024-02-21T06:49:05;101126.56;;;8.43;100.00
4586;BME280;2305;50.118;8.952;2024-02-21T06:51:34;101132.16;;;8.37;100.00
4586;BME280;2305;50.118;8.952;2024-02-21T06:54:03;101122.78;;;8.47;100.00
4586;BME280;2305;50.118;8.952;2024-02-21T06:56:31;101116.78;;;8.45;100.00
4586;BME280;2305;50.118;8.952;2024-02-21T06:59:01;101098.22;;;8.48;100.00
4586;BME280;2305;50.118;8.952;2024-02-21T07:01:30;101110.16;;;8.53;100.00
4586;BME280;2305;50.118;8.952;2024-02-21T07:03:58;101110.91;;;8.55;100.00
4586;BME280;2305;50.118;8.952;2024-02-21T07:06:26;101110.41;;;8.63;100.00
4586;BME280;2305;50.118;8.952;2024-02-21T07:08:56;101114.56;;;8.67;100.00
4586;BME280;2305;50.118;8.952;2024-02-21T07:11:25;101118.50;;;8.60;100.00
4586;BME280;2305;50.118;8.952;2024-02-21T07:13:53;101123.28;;;8.81;100.00
4586;BME280;2305;50.118;8.952;2024-02-21T07:16:22;101120.94;;;8.77;100.00
4586;BME280;2305;50.118;8.952;2024-02-21T07:18:50;101125.25;;;8.92;100.00
4586;BME280;2305;50.118;8.952;2024-02-21T07:21:19;101120.91;;;8.90;100.00
4586;BME280;2305;50.118;8.952;2024-02-21T07:23:47;101117.19;;;8.81;100.00
4586;BME280;2305;50.118;8.952;2024-02-21T07:26:15;101107.53;;;8.81;100.00
4586;BME280;2305;50.118;8.952;2024-02-21T07:28:43;101108.44;;;8.80;100.00
4586;BME280;2305;50.118;8.952;2024-02-21T07:31:11;101094.47;;;8.80;100.00
4586;BME280;2305;50.118;8.952;2024-02-21T07:33:40;101109.09;;;8.83;100.00
4586;BME280;2305;50.118;8.952;2024-02-21T07:36:10;101103.28;;;8.93;100.00
4586;BME280;2305;50.118;8.952;2024-02-21T07:38:41;101106.47;;;8.97;100.00
4586;BME280;2305;50.118;8.952;2024-02-21T07:41:09;101116.22;;;9.09;100.00
4586;BME280;2305;50.118;8.952;2024-02-21T07:43:37;101102.97;;;9.11;100.00
4586;BME280;2305;50.118;8.952;2024-02-21T07:46:06;101106.13;;;9.16;100.00
4586;BME280;2305;50.118;8.952;2024-02-21T07:48:34;101104.00;;;9.22;100.00
4586;BME280;2305;50.118;8.952;2024-02-21T07:51:04;101108.31;;;9.23;100.00
4586;BME280;2305;50.118;8.952;2024-02-21T07:53:32;101102.81;;;9.67;100.00
4586;BME280;2305;50.118;8.952;2024-02-21T07:56:00;101096.19;;;9.47;100.00
4586;BME280;2305;50.118;8.952;2024-02-21T07:58:29;101101.28;;;9.50;100.00
4586;BME280;2305;50.118;8.952;2024-02-21T08:00:57;101111.47;;;9.42;100.00
4586;BME280;2305;50.118;8.952;2024-02-21T08:03:26;101106.31;;;9.53;100.00
4586;BME280;2305;50.118;8.952;2024-02-21T08:05:54;101102.28;;;9.62;100.00
4586;BME280;2305;50.118;8.952;2024-02-21T08:08:23;101103.81;;;9.78;100.00
4586;BME280;2305;50.118;8.952;2024-02-21T08:10:52;101099.78;;;10.12;100.00
4586;BME280;2305;50.118;8.952;2024-02-21T08:13:20;101100.94;;;10.08;100.00
4586;BME280;2305;50.118;8.952;2024-02-21T08:15:48;101104.19;;;10.11;100.00
4586;BME280;2305;50.118;8.952;2024-02-21T08:18:16;101105.84;;;10.00;100.00
4586;BME280;2305;50.118;8.952;2024-02-21T08:20:44;101104.63;;;10.05;100.00
4586;BME280;2305;50.118;8.952;2024-02-21T08:23:12;101094.53;;;10.12;100.00
4586;BME280;2305;50.118;8.952;2024-02-21T08:25:42;101096.84;;;10.16;100.00
4586;BME280;2305;50.118;8.952;2024-02-21T08:28:10;101088.41;;;10.11;100.00
4586;BME280;2305;50.118;8.952;2024-02-21T08:30:38;101082.94;;;10.14;100.00
4586;BME280;2305;50.118;8.952;2024-02-21T08:33:06;101077.38;;;10.31;100.00
4586;BME280;2305;50.118;8.952;2024-02-21T08:35:34;101065.16;;;10.30;100.00
4586;BME280;2305;50.118;8.952;2024-02-21T08:38:03;101074.44;;;10.48;100.00
4586;BME280;2305;50.118;8.952;2024-02-21T08:40:31;101071.16;;;10.45;100.00
4586;BME280;2305;50.118;8.952;2024-02-21T08:43:03;101070.09;;;10.35;100.00
4586;BME280;2305;50.118;8.952;2024-02-21T08:45:33;101062.41;;;10.32;100.00
4586;BME280;2305;50.118;8.952;2024-02-21T08:48:04;101068.94;;;10.39;100.00
4586;BME280;2305;50.118;8.952;2024-02-21T08:50:33;101072.72;;;10.35;100.00
4586;BME280;2305;50.118;8.952;2024-02-21T08:53:01;101069.78;;;10.52;100.00
4586;BME280;2305;50.118;8.952;2024-02-21T08:55:29;101065.91;;;10.45;100.00
4586;BME280;2305;50.118;8.952;2024-02-21T08:57:57;101065.47;;;10.38;100.00
4586;BME280;2305;50.118;8.952;2024-02-21T09:00:27;101064.19;;;10.31;100.00
4586;BME280;2305;50.118;8.952;2024-02-21T09:02:55;101064.63;;;10.50;100.00
4586;BME280;2305;50.118;8.952;2024-02-21T09:05:23;101055.34;;;10.45;100.00
4586;BME280;2305;50.118;8.952;2024-02-21T09:07:52;101054.81;;;10.40;100.00
4586;BME280;2305;50.118;8.952;2024-02-21T09:10:23;101049.47;;;10.41;100.00
4586;BME280;2305;50.118;8.952;2024-02-21T09:12:52;101037.41;;;10.50;100.00
4586;BME280;2305;50.118;8.952;2024-02-21T09:15:20;101039.44;;;10.59;100.00
4586;BME280;2305;50.118;8.952;2024-02-21T09:17:49;101030.13;;;10.66;100.00
4586;BME280;2305;50.118;8.952;2024-02-21T09:20:17;101040.47;;;10.56;100.00
4586;BME280;2305;50.118;8.952;2024-02-21T09:22:45;101026.03;;;10.62;100.00
4586;BME280;2305;50.118;8.952;2024-02-21T09:25:16;101027.19;;;10.70;100.00
4586;BME280;2305;50.118;8.952;2024-02-21T09:27:45;101014.50;;;10.75;100.00
4586;BME280;2305;50.118;8.952;2024-02-21T09:30:13;101016.41;;;10.73;100.00
4586;BME280;2305;50.118;8.952;2024-02-21T09:32:41;101017.34;;;10.72;100.00
4586;BME280;2305;50.118;8.952;2024-02-21T09:35:11;101015.59;;;10.73;100.00
4586;BME280;2305;50.118;8.952;2024-02-21T09:37:40;101014.38;;;10.77;100.00
4586;BME280;2305;50.118;8.952;2024-02-21T09:40:08;100999.81;;;10.84;100.00
4586;BME280;2305;50.118;8.952;2024-02-21T09:42:38;101002.06;;;10.65;100.00
4586;BME280;2305;50.118;8.952;2024-02-21T09:45:08;101022.94;;;10.80;100.00
4586;BME280;2305;50.118;8.952;2024-02-21T09:47:46;101005.97;;;10.72;100.00
4586;BME280;2305;50.118;8.952;2024-02-21T09:50:21;101009.97;;;10.77;100.00
4586;BME280;2305;50.118;8.952;2024-02-21T09:52:51;101006.47;;;10.77;100.00
4586;BME280;2305;50.118;8.952;2024-02-21T09:55:21;101001.69;;;10.94;100.00
4586;BME280;2305;50.118;8.952;2024-02-21T09:57:50;100997.31;;;11.06;100.00
4586;BME280;2305;50.118;8.952;2024-02-21T10:00:19;100995.25;;;10.98;100.00
4586;BME280;2305;50.118;8.952;2024-02-21T10:02:49;100998.25;;;10.81;100.00
4586;BME280;2305;50.118;8.952;2024-02-21T10:05:19;100991.19;;;10.82;100.00
4586;BME280;2305;50.118;8.952;2024-02-21T10:07:51;101001.41;;;10.86;100.00
4586;BME280;2305;50.118;8.952;2024-02-21T10:10:19;100994.47;;;11.09;100.00
4586;BME280;2305;50.118;8.952;2024-02-21T10:12:49;100990.03;;;11.09;100.00
4586;BME280;2305;50.118;8.952;2024-02-21T10:15:20;100987.38;;;11.33;100.00
4586;BME280;2305;50.118;8.952;2024-02-21T10:17:49;100993.81;;;11.29;100.00
4586;BME280;2305;50.118;8.952;2024-02-21T10:20:17;100996.41;;;11.41;100.00
4586;BME280;2305;50.118;8.952;2024-02-21T10:22:47;100980.94;;;11.37;100.00
4586;BME280;2305;50.118;8.952;2024-02-21T10:25:15;100967.59;;;11.27;100.00
4586;BME280;2305;50.118;8.952;2024-02-21T10:27:43;100972.16;;;11.36;100.00
4586;BME280;2305;50.118;8.952;2024-02-21T10:30:13;100964.34;;;11.35;100.00
4586;BME280;2305;50.118;8.952;2024-02-21T10:32:49;100957.81;;;11.40;100.00
4586;BME280;2305;50.118;8.952;2024-02-21T10:35:26;100958.25;;;11.34;100.00
4586;BME280;2305;50.118;8.952;2024-02-21T10:37:56;100941.72;;;11.43;100.00
4586;BME280;2305;50.118;8.952;2024-02-21T10:40:25;100938.28;;;11.54;100.00
4586;BME280;2305;50.118;8.952;2024-02-21T10:42:56;100941.38;;;11.37;100.00
4586;BME280;2305;50.118;8.952;2024-02-21T10:45:30;100927.94;;;11.40;100.00
4586;BME280;2305;50.118;8.952;2024-02-21T10:48:08;100935.28;;;11.47;100.00
4586;BME280;2305;50.118;8.952;2024-02-21T10:50:50;100926.34;;;11.26;100.00
4586;BME280;2305;50.118;8.952;2024-02-21T10:53:30;100924.00;;;11.11;100.00
4586;BME280;2305;50.118;8.952;2024-02-21T10:56:11;100931.31;;;11.18;100.00
4586;BME280;2305;50.118;8.952;2024-02-21T10:58:43;100918.78;;;11.33;100.00
4586;BME280;2305;50.118;8.952;2024-02-21T11:01:14;100918.22;;;11.40;100.00
4586;BME280;2305;50.118;8.952;2024-02-21T11:03:46;100904.06;;;11.41;100.00
4586;BME280;2305;50.118;8.952;2024-02-21T11:06:16;100902.16;;;11.54;100.00
4586;BME280;2305;50.118;8.952;2024-02-21T11:08:59;100905.72;;;11.66;100.00
4586;BME280;2305;50.118;8.952;2024-02-21T11:11:28;100909.19;;;11.66;100.00
4586;BME280;2305;50.118;8.952;2024-02-21T11:14:08;100905.00;;;11.75;100.00
4586;BME280;2305;50.118;8.952;2024-02-21T11:16:37;100896.47;;;11.82;100.00
4586;BME280;2305;50.118;8.952;2024-02-21T11:19:07;100891.19;;;11.82;100.00
4586;BME280;2305;50.118;8.952;2024-02-21T11:21:37;100877.28;;;11.80;100.00
4586;BME280;2305;50.118;8.952;2024-02-21T11:24:07;100871.28;;;11.89;100.00
4586;BME280;2305;50.118;8.952;2024-02-21T11:26:39;100878.38;;;11.89;100.00
4586;BME280;2305;50.118;8.952;2024-02-21T11:29:08;100874.66;;;11.91;100.00
4586;BME280;2305;50.118;8.952;2024-02-21T11:31:40;100860.00;;;11.76;100.00
4586;BME280;2305;50.118;8.952;2024-02-21T11:34:10;100855.88;;;11.61;100.00
4586;BME280;2305;50.118;8.952;2024-02-21T11:36:46;100845.25;;;11.74;100.00
4586;BME280;2305;50.118;8.952;2024-02-21T11:39:22;100838.66;;;11.90;100.00
4586;BME280;2305;50.118;8.952;2024-02-21T11:42:01;100836.81;;;11.91;100.00
4586;BME280;2305;50.118;8.952;2024-02-21T11:44:30;100836.47;;;12.06;100.00
4586;BME280;2305;50.118;8.952;2024-02-21T11:47:02;100818.81;;;11.96;100.00
4586;BME280;2305;50.118;8.952;2024-02-21T11:49:35;100821.19;;;12.21;100.00
4586;BME280;2305;50.118;8.952;2024-02-21T11:52:04;100815.78;;;12.22;100.00
4586;BME280;2305;50.118;8.952;2024-02-21T11:54:35;100807.84;;;12.33;100.00
4586;BME280;2305;50.118;8.952;2024-02-21T11:57:03;100810.50;;;12.22;100.00
4586;BME280;2305;50.118;8.952;2024-02-21T11:59:34;100798.47;;;12.29;100.00
4586;BME280;2305;50.118;8.952;2024-02-21T12:02:04;100793.56;;;12.14;100.00
4586;BME280;2305;50.118;8.952;2024-02-21T12:04:32;100793.28;;;12.28;100.00
4586;BME280;2305;50.118;8.952;2024-02-21T12:07:04;100779.22;;;12.38;100.00
4586;BME280;2305;50.118;8.952;2024-02-21T12:09:35;100777.75;;;12.45;100.00
4586;BME280;2305;50.118;8.952;2024-02-21T12:12:06;100780.44;;;12.34;100.00
4586;BME280;2305;50.118;8.952;2024-02-21T12:14:35;100767.53;;;12.09;100.00
4586;BME280;2305;50.118;8.952;2024-02-21T12:17:04;100754.53;;;12.17;100.00
4586;BME280;2305;50.118;8.952;2024-02-21T12:19:34;100749.78;;;12.11;100.00
4586;BME280;2305;50.118;8.952;2024-02-21T12:22:02;100747.56;;;12.27;100.00
4586;BME280;2305;50.118;8.952;2024-02-21T12:24:33;100740.22;;;12.31;100.00
4586;BME280;2305;50.118;8.952;2024-02-21T12:27:05;100737.44;;;12.32;100.00
4586;BME280;2305;50.118;8.952;2024-02-21T12:29:33;100735.53;;;12.34;100.00
4586;BME280;2305;50.118;8.952;2024-02-21T12:32:02;100729.75;;;12.40;100.00
4586;BME280;2305;50.118;8.952;2024-02-21T12:34:31;100727.22;;;12.39;100.00
4586;BME280;2305;50.118;8.952;2024-02-21T12:37:18;100720.50;;;12.35;100.00
4586;BME280;2305;50.118;8.952;2024-02-21T12:39:49;100720.06;;;12.30;100.00
4586;BME280;2305;50.118;8.952;2024-02-21T12:42:18;100710.00;;;12.44;100.00
4586;BME280;2305;50.118;8.952;2024-02-21T12:44:46;100699.03;;;12.49;100.00
4586;BME280;2305;50.118;8.952;2024-02-21T12:47:18;100704.97;;;12.41;100.00
4586;BME280;2305;50.118;8.952;2024-02-21T12:49:50;100694.34;;;12.52;100.00
4586;BME280;2305;50.118;8.952;2024-02-21T12:52:18;100677.72;;;12.61;100.00
4586;BME280;2305;50.118;8.952;2024-02-21T12:54:50;100660.75;;;12.64;100.00
4586;BME280;2305;50.118;8.952;2024-02-21T12:57:22;100665.09;;;12.65;100.00
4586;BME280;2305;50.118;8.952;2024-02-21T12:59:54;100664.31;;;12.74;100.00
4586;BME280;2305;50.118;8.952;2024-02-21T13:02:21;100665.28;;;12.73;100.00
4586;BME280;2305;50.118;8.952;2024-02-21T13:04:50;100657.81;;;12.87;100.00
4586;BME280;2305;50.118;8.952;2024-02-21T13:07:18;100654.75;;;12.62;100.00
4586;BME280;2305;50.118;8.952;2024-02-21T13:09:49;100660.16;;;12.60;100.00
4586;BME280;2305;50.118;8.952;2024-02-21T13:12:16;100655.53;;;12.53;100.00
4586;BME280;2305;50.118;8.952;2024-02-21T13:14:46;100651.06;;;12.53;100.00
4586;BME280;2305;50.118;8.952;2024-02-21T13:17:14;100651.81;;;12.55;100.00
4586;BME280;2305;50.118;8.952;2024-02-21T13:19:43;100640.31;;;12.66;100.00